Time;durP1;ratioP1;P1;durP2;ratioP2;P2;SDS_P1;SDS_P2;PMS_P1;PMS_P2;Temp;Humidity;BMP_temperature;BMP_pressure;BME280_temperature;BME280_humidity;BME280_pressure;Samples;Min_cycle;Max_cycle;Signal;HPM_P1;HPM_P2
2022/03/09 00:00:57;;;;;;;13.73;8.93;;;7.70;34.80;;;-142.21;37.38;112049.66;5053460;28;20498;-75
2022/03/09 00:03:25;;;;;;;10.77;8.90;;;7.70;34.70;;;-142.21;37.35;112049.66;5054107;28;20476;-75
2022/03/09 00:05:55;;;;;;;7.97;7.17;;;7.60;34.50;;;-142.21;37.23;112049.66;5053646;28;20448;-77
2022/03/09 00:08:23;;;;;;;8.70;7.38;;;7.50;34.40;;;-142.21;36.53;112049.66;5054493;28;20433;-75
2022/03/09 00:10:50;;;;;;;10.67;7.50;;;7.50;34.90;;;-142.21;37.16;112049.66;5053536;28;20285;-76
2022/03/09 00:13:18;;;;;;;8.67;6.97;;;7.60;34.70;;;-142.21;36.05;112049.66;5053509;28;20456;-77
2022/03/09 00:15:47;;;;;;;7.75;6.85;;;7.50;33.90;;;-142.21;35.97;112049.66;5053717;28;20543;-75
2022/03/09 00:18:14;;;;;;;10.13;7.13;;;7.50;33.70;;;-142.21;36.10;112049.66;5053782;28;20205;-75
2022/03/09 00:20:42;;;;;;;7.83;7.00;;;7.50;34.00;;;-142.21;36.11;112049.66;5053246;28;20459;-75
2022/03/09 00:23:09;;;;;;;8.60;6.90;;;7.50;33.80;;;-142.21;35.99;112049.66;5054050;28;20481;-75
2022/03/09 00:25:36;;;;;;;9.00;6.80;;;7.50;33.80;;;-142.21;35.47;112049.66;5053760;28;20448;-76
2022/03/09 00:28:04;;;;;;;9.30;7.37;;;7.50;33.50;;;-142.21;36.61;112049.66;5053951;28;20451;-76
2022/03/09 00:30:32;;;;;;;15.10;7.40;;;7.50;34.00;;;-142.21;36.26;112049.66;5053974;28;20456;-75
2022/03/09 00:33:01;;;;;;;9.43;7.07;;;7.50;33.90;;;-142.21;36.36;112049.66;5056290;28;20487;-76
2022/03/09 00:35:28;;;;;;;8.60;6.83;;;7.40;34.00;;;-142.21;36.79;112049.66;5054374;28;20484;-74
2022/03/09 00:37:55;;;;;;;8.23;6.77;;;7.40;34.40;;;-142.21;36.45;112049.66;5053856;28;20480;-76
2022/03/09 00:40:23;;;;;;;8.27;7.30;;;7.50;34.60;;;-142.21;36.88;112049.66;5054427;28;20479;-76
2022/03/09 00:42:50;;;;;;;8.13;7.03;;;7.60;34.90;;;-142.21;36.88;112049.66;5054829;28;20444;-76
2022/03/09 00:45:18;;;;;;;7.10;6.40;;;7.60;34.40;;;-142.21;37.06;112049.66;5053610;28;20498;-74
2022/03/09 00:47:45;;;;;;;8.17;6.70;;;7.60;34.60;;;-142.21;37.35;112049.66;5053382;28;20563;-75
2022/03/09 00:50:14;;;;;;;7.43;6.63;;;7.70;35.10;;;-142.21;37.70;112049.66;5052874;28;20448;-75
2022/03/09 00:52:41;;;;;;;10.43;7.30;;;7.70;34.50;;;-142.21;37.47;112049.66;5052151;28;20472;-75
2022/03/09 00:55:10;;;;;;;8.07;7.10;;;7.60;34.50;;;-142.21;38.46;112049.66;5050217;28;20439;-75
2022/03/09 00:57:37;;;;;;;7.90;7.10;;;7.60;34.90;;;-142.21;39.01;112049.66;5050364;28;20657;-75
2022/03/09 01:00:06;;;;;;;9.17;7.87;;;7.60;34.70;;;-142.21;39.22;112049.66;5052606;28;20815;-75
2022/03/09 01:02:33;;;;;;;8.50;7.47;;;7.40;35.60;;;-142.21;40.01;112049.66;5047895;28;20449;-75
2022/03/09 01:05:00;;;;;;;9.83;7.50;;;7.30;35.50;;;-142.21;39.96;112049.66;5051520;28;20517;-76
2022/03/09 01:07:31;;;;;;;8.77;6.50;;;7.20;35.80;;;-142.21;40.42;112049.66;5053861;28;20440;-74
2022/03/09 01:09:59;;;;;;;8.60;7.60;;;7.10;36.00;;;-142.21;40.45;112049.66;5053664;28;20491;-75
2022/03/09 01:12:29;;;;;;;8.65;7.63;;;7.00;36.00;;;-142.21;40.51;112049.66;5052279;28;20431;-74
2022/03/09 01:14:56;;;;;;;8.13;7.27;;;7.00;35.90;;;-142.21;40.07;112049.66;5052930;28;20210;-76
2022/03/09 01:17:24;;;;;;;8.33;7.47;;;6.90;36.10;;;-142.21;40.25;112049.66;5051885;28;20452;-75
2022/03/09 01:19:51;;;;;;;8.63;7.33;;;6.70;36.20;;;-142.21;40.00;112049.66;5052614;28;20455;-75
2022/03/09 01:22:19;;;;;;;10.27;7.60;;;6.70;36.10;;;-142.21;40.25;112049.66;5051942;28;20494;-77
2022/03/09 01:24:48;;;;;;;8.15;6.95;;;6.70;36.20;;;-142.21;40.23;112049.66;5052096;28;20448;-76
2022/03/09 01:27:16;;;;;;;9.57;7.25;;;6.50;36.70;;;-142.21;40.60;112049.66;5052232;28;20209;-75
2022/03/09 01:29:44;;;;;;;10.18;6.97;;;6.40;37.20;;;-142.21;41.05;112049.66;5052831;28;20290;-75
2022/03/09 01:32:11;;;;;;;11.05;7.60;;;6.40;37.30;;;-142.21;41.16;112049.66;5051861;28;20230;-76
2022/03/09 01:34:38;;;;;;;8.17;7.13;;;6.40;37.20;;;-142.21;40.47;112049.66;5051852;28;20291;-77
2022/03/09 01:37:06;;;;;;;7.43;6.70;;;6.30;36.80;;;-142.21;40.48;112049.66;5052765;28;20501;-74
2022/03/09 01:39:33;;;;;;;9.43;7.30;;;6.30;37.00;;;-142.21;40.19;112049.66;5051151;28;20297;-78
2022/03/09 01:42:02;;;;;;;9.10;7.47;;;6.30;36.90;;;-142.21;40.46;112049.66;5052597;28;20225;-75
2022/03/09 01:44:30;;;;;;;9.00;7.20;;;6.30;37.00;;;-142.21;41.17;112049.66;5051530;28;20604;-75
2022/03/09 01:46:57;;;;;;;11.02;7.05;;;6.30;37.30;;;-142.21;41.89;112049.66;5051571;28;20202;-75
2022/03/09 01:49:26;;;;;;;8.52;7.18;;;6.20;37.60;;;-142.21;42.08;112049.66;5052538;28;20267;-74
2022/03/09 01:51:57;;;;;;;7.68;6.68;;;6.20;37.70;;;-142.21;41.37;112049.66;5051296;28;20271;-75
2022/03/09 01:54:25;;;;;;;10.75;7.60;;;6.20;37.60;;;-142.21;41.80;112049.66;5052081;28;20193;-75
2022/03/09 01:56:53;;;;;;;7.28;6.47;;;6.20;37.80;;;-142.21;42.00;112049.66;5051915;28;20710;-75
2022/03/09 01:59:22;;;;;;;7.75;6.85;;;6.20;37.70;;;-142.21;42.10;112049.66;5052109;28;20214;-74
2022/03/09 02:01:51;;;;;;;8.80;7.40;;;6.10;38.10;;;-142.21;42.19;112049.66;5049231;28;20634;-75
2022/03/09 02:04:19;;;;;;;8.70;6.80;;;6.10;38.40;;;-142.21;41.87;112049.66;5048184;28;20225;-74
2022/03/09 02:06:47;;;;;;;8.32;7.18;;;6.10;38.10;;;-142.21;42.17;112049.66;5051307;28;20283;-75
2022/03/09 02:12:00;;;;;;;8.43;6.82;;;6.10;37.90;;;-142.21;42.37;112049.66;5051479;28;20216;-76
2022/03/09 02:14:36;;;;;;;8.10;6.78;;;6.00;38.20;;;-142.21;42.38;112049.66;5050738;28;20704;-75
2022/03/09 02:17:12;;;;;;;7.65;6.65;;;6.00;38.20;;;-142.21;42.86;112049.66;5037958;28;20548;-76
2022/03/09 02:19:41;;;;;;;9.85;7.65;;;5.90;38.40;;;-142.21;43.26;112049.66;5052401;28;20232;-76
2022/03/09 02:22:16;;;;;;;9.18;7.47;;;5.90;38.90;;;-142.21;43.34;112049.66;5051771;28;20271;-75
2022/03/09 02:24:45;;;;;;;8.25;7.03;;;5.80;39.00;;;-142.21;42.97;112049.66;5051913;28;20197;-75
2022/03/09 02:27:23;;;;;;;9.07;7.05;;;5.80;38.20;;;-142.21;43.11;112049.66;5051741;28;20268;-75
2022/03/09 02:30:17;;;;;;;9.43;7.60;;;5.80;38.50;;;-142.21;44.78;112049.66;5051891;28;20190;-76
2022/03/09 02:32:55;;;;;;;8.82;7.47;;;5.70;39.20;;;-142.21;45.02;112049.66;5043743;28;20217;-76
2022/03/09 02:35:47;;;;;;;9.10;6.90;;;5.60;39.60;;;-142.21;43.52;112049.66;5051529;28;20244;-76
2022/03/09 03:22:28;;;;;;;9.00;7.40;;;5.00;40.20;;;-142.21;45.61;112049.66;4827923;29;20285;-76
2022/03/09 03:29:30;;;;;;;10.10;7.35;;;4.90;40.60;;;-142.21;45.79;112049.66;4769387;29;20214;-76
2022/03/09 03:32:10;;;;;;;9.90;8.00;;;4.80;40.40;;;-142.21;46.50;112049.66;4785851;29;20665;-76
2022/03/09 03:34:50;;;;;;;9.00;7.80;;;4.80;40.90;;;-142.21;47.17;112049.66;4943411;29;20726;-76
2022/03/09 03:37:17;;;;;;;9.98;7.40;;;4.80;41.00;;;-142.21;46.53;112049.66;4934775;29;20206;-75
2022/03/09 03:39:51;;;;;;;9.82;7.28;;;4.80;40.60;;;-142.21;46.64;112049.66;4926043;29;20206;-77
2022/03/09 03:42:25;;;;;;;9.40;7.32;;;4.90;40.60;;;-142.21;47.28;112049.66;4921181;29;20225;-78
2022/03/09 03:44:54;;;;;;;9.02;7.15;;;4.90;40.50;;;-142.21;46.52;112049.66;4943753;28;20230;-77
2022/03/09 03:47:31;;;;;;;8.88;7.15;;;4.80;40.50;;;-142.21;46.85;112049.66;5012943;28;20203;-76
2022/03/09 03:50:02;;;;;;;9.18;7.15;;;4.80;40.40;;;-142.21;47.04;112049.66;5012554;28;20198;-77
2022/03/09 03:52:37;;;;;;;8.10;6.38;;;4.80;40.80;;;-142.21;48.25;112049.66;5053436;28;20232;-76
2022/03/09 03:55:14;;;;;;;8.45;7.05;;;4.80;41.00;;;-142.21;47.57;112049.66;5054318;28;20205;-76
2022/03/09 03:58:13;;;;;;;8.80;7.47;;;4.60;41.70;;;-142.21;48.40;112049.66;5051528;28;20201;-76
2022/03/09 04:00:46;;;;;;;9.80;8.30;;;4.70;41.30;;;-142.21;48.47;112049.66;5051709;28;20605;-76
2022/03/09 04:03:18;;;;;;;9.75;7.15;;;4.60;41.50;;;-142.21;48.93;112049.66;5043014;28;20658;-77
2022/03/09 04:06:02;;;;;;;9.95;7.75;;;4.50;40.90;;;-142.21;48.11;112049.66;5053625;28;20197;-77
2022/03/09 04:08:31;;;;;;;9.85;8.02;;;4.60;41.20;;;-142.21;48.74;112049.66;5054652;28;20206;-76
2022/03/09 04:11:06;;;;;;;9.18;7.22;;;4.50;41.00;;;-142.21;48.21;112049.66;5053597;28;20220;-76
2022/03/09 04:13:34;;;;;;;10.60;7.65;;;4.50;41.10;;;-142.21;48.06;112049.66;5053768;28;20221;-77
2022/03/09 04:16:01;;;;;;;8.90;6.90;;;4.50;40.80;;;-142.21;47.28;112049.66;5054207;28;20202;-77
2022/03/09 04:18:30;;;;;;;9.70;7.45;;;4.50;40.80;;;-142.21;50.70;112049.66;5042629;28;20210;-77
2022/03/09 04:20:58;;;;;;;9.98;7.57;;;4.40;41.50;;;-142.21;50.46;112049.66;5054602;28;20274;-76
2022/03/09 04:23:26;;;;;;;11.20;8.02;;;4.30;41.40;;;-142.21;50.39;112049.66;5053633;28;20226;-76
2022/03/09 04:25:56;;;;;;;9.75;7.28;;;4.30;42.00;;;-142.21;50.78;112049.66;5054238;28;20209;-76
2022/03/09 04:28:24;;;;;;;10.13;7.72;;;4.20;42.00;;;-142.21;52.18;112049.66;5054082;28;20202;-78
2022/03/09 04:30:54;;;;;;;13.30;8.25;;;4.20;42.20;;;-142.21;52.71;112049.66;5057365;28;20205;-77
2022/03/09 04:33:22;;;;;;;8.55;7.38;;;4.20;42.50;;;-142.21;53.42;112049.66;5056138;28;20221;-77
2022/03/09 04:35:51;;;;;;;11.73;8.48;;;4.10;42.60;;;-142.21;53.19;112049.66;5053426;28;20355;-78
2022/03/09 04:38:20;;;;;;;9.93;7.75;;;4.10;42.90;;;-142.21;52.39;112049.66;5059797;28;20218;-79
2022/03/09 04:40:51;;;;;;;8.88;7.32;;;4.10;42.10;;;-142.21;53.65;112049.66;5060569;28;20205;-77
2022/03/09 04:43:26;;;;;;;10.23;8.15;;;4.10;42.50;;;-142.21;51.27;112049.66;5055982;28;20205;-75
2022/03/09 04:45:53;;;;;;;10.60;8.20;;;4.00;42.60;;;-142.21;50.59;112049.66;5053373;28;20205;-76
2022/03/09 04:48:22;;;;;;;12.88;7.97;;;4.00;41.90;;;-142.21;50.69;112049.66;5053357;28;20210;-76
2022/03/09 04:51:09;;;;;;;10.43;8.30;;;4.00;42.30;;;-142.21;51.47;112049.66;5053253;28;20282;-76
2022/03/09 04:53:40;;;;;;;9.38;8.05;;;3.90;42.60;;;-142.21;52.59;112049.66;5052780;28;20222;-76
2022/03/09 04:56:17;;;;;;;11.80;8.63;;;3.90;43.10;;;-142.21;53.36;112049.66;5054274;28;20205;-76
2022/03/09 04:58:49;;;;;;;9.73;8.05;;;3.90;43.40;;;-142.21;52.58;112049.66;5053323;28;20203;-75
2022/03/09 05:01:28;;;;;;;10.52;7.72;;;3.90;42.80;;;-142.21;52.78;112049.66;5053954;28;20213;-76
2022/03/09 05:04:09;;;;;;;9.73;8.35;;;4.00;43.40;;;-142.21;53.16;112049.66;5053400;28;20212;-76
2022/03/09 05:06:55;;;;;;;11.90;7.57;;;3.80;43.50;;;-142.21;53.43;112049.66;5045884;28;20498;-77
2022/03/09 05:09:36;;;;;;;9.65;8.65;;;3.90;43.50;;;-142.21;54.41;112049.66;5040549;28;20639;-76
2022/03/09 05:12:05;;;;;;;9.35;7.88;;;3.80;43.00;;;-142.21;54.64;112049.66;5050346;28;20300;-76
2022/03/09 05:14:38;;;;;;;10.88;8.52;;;3.80;43.50;;;-142.21;55.11;112049.66;5053192;28;20197;-76
2022/03/09 05:17:11;;;;;;;10.48;8.40;;;3.80;43.30;;;-142.21;55.79;112049.66;5054252;28;20209;-75
2022/03/09 05:19:40;;;;;;;10.68;7.65;;;3.80;42.90;;;-142.21;55.11;112049.66;5053745;28;20260;-76
2022/03/09 05:22:14;;;;;;;10.85;9.00;;;3.80;43.30;;;-142.21;54.84;112049.66;5052937;28;20618;-76
2022/03/09 05:24:43;;;;;;;12.93;8.50;;;3.70;43.30;;;-142.21;55.39;112049.66;5045653;28;20232;-75
2022/03/09 05:27:11;;;;;;;11.82;9.00;;;3.70;42.90;;;-142.21;56.63;112049.66;5048565;28;20198;-77
2022/03/09 05:29:56;;;;;;;11.00;8.82;;;3.70;43.20;;;-142.21;56.07;112049.66;5053163;28;20202;-77
2022/03/09 05:32:27;;;;;;;10.65;8.93;;;3.60;43.40;;;-142.21;55.48;112049.66;5052504;28;20206;-77
2022/03/09 05:34:57;;;;;;;9.43;8.15;;;3.60;43.70;;;-142.21;55.30;112049.66;5052908;28;20245;-76
2022/03/09 05:37:28;;;;;;;10.68;8.18;;;3.60;44.00;;;-142.21;55.56;112049.66;5053659;28;20194;-76
2022/03/09 05:39:55;;;;;;;11.65;9.13;;;3.50;43.70;;;-142.21;56.39;112049.66;5053096;28;20556;-77
2022/03/09 05:42:23;;;;;;;9.48;7.57;;;3.50;43.70;;;-142.21;57.78;112049.66;5052622;28;20202;-75
2022/03/09 05:44:50;;;;;;;11.57;8.80;;;3.60;44.30;;;-142.21;58.23;112049.66;5052918;28;20332;-76
2022/03/09 05:47:18;;;;;;;10.40;8.45;;;3.50;44.00;;;-142.21;56.96;112049.66;5052142;28;20677;-76
2022/03/09 05:49:45;;;;;;;12.25;8.38;;;3.60;43.80;;;-142.21;56.57;112049.66;5052516;28;20206;-76
2022/03/09 05:52:15;;;;;;;13.00;7.82;;;3.50;43.80;;;-142.21;55.95;112049.66;5051356;28;20198;-75
2022/03/09 05:54:45;;;;;;;11.32;8.30;;;3.50;43.20;;;-142.21;55.98;112049.66;5052718;28;20205;-75
2022/03/09 05:57:13;;;;;;;8.82;7.22;;;3.60;43.10;;;-142.21;57.92;112049.66;5053039;28;20285;-76
2022/03/09 05:59:42;;;;;;;11.63;7.75;;;3.60;43.30;;;-142.21;58.08;112049.66;5052615;28;20297;-74
2022/03/09 06:02:13;;;;;;;10.05;7.82;;;3.60;43.10;;;-142.21;57.21;112049.66;5049071;28;20221;-74
2022/03/09 06:04:45;;;;;;;10.77;8.07;;;3.60;43.40;;;-142.21;56.61;112049.66;5042116;28;20194;-75
2022/03/09 06:07:16;;;;;;;12.50;8.18;;;3.60;43.90;;;-142.21;57.48;112049.66;5052053;28;20217;-76
2022/03/09 06:09:50;;;;;;;11.60;8.27;;;3.50;44.00;;;-142.21;56.39;112049.66;5050569;28;20263;-76
2022/03/09 06:12:18;;;;;;;10.40;8.18;;;3.50;44.00;;;-142.21;55.94;112049.66;5038794;28;20269;-76
2022/03/09 06:14:51;;;;;;;9.27;7.43;;;3.40;43.70;;;-142.21;56.54;112049.66;5052161;28;20296;-76
2022/03/09 06:17:21;;;;;;;10.48;8.05;;;3.50;43.80;;;-142.21;56.99;112049.66;5052305;28;20305;-77
2022/03/09 06:37:57;;;;;;;9.80;7.80;;;3.80;44.00;;;-142.21;55.64;112049.66;6047879;22;1508082;-80
2022/03/09 06:40:27;;;;;;;9.93;7.97;;;4.50;43.10;;;-142.21;54.89;112049.66;6077444;23;20195;-79
2022/03/09 06:43:01;;;;;;;10.90;8.18;;;4.60;43.00;;;-142.21;57.50;112049.66;6075448;23;20618;-77
2022/03/09 06:45:29;;;;;;;11.23;8.80;;;4.60;43.10;;;-142.21;57.82;112049.66;6076209;23;20189;-81
2022/03/09 06:47:57;;;;;;;11.15;8.93;;;4.60;42.90;;;-142.21;57.15;112049.66;6075210;23;20625;-80
2022/03/09 06:50:29;;;;;;;11.50;8.95;;;4.60;42.80;;;-142.21;58.01;112049.66;6074672;23;20192;-78
2022/03/09 06:53:21;;;;;;;9.50;8.50;;;4.60;43.20;;;-142.21;57.06;112049.66;6073920;23;20200;-79
2022/03/09 06:55:57;;;;;;;11.80;8.68;;;4.70;43.60;;;-142.21;56.73;112049.66;6067602;23;20258;-76
2022/03/09 06:58:27;;;;;;;11.60;8.40;;;4.80;44.20;;;-142.21;58.29;112049.66;6074502;23;20169;-76
2022/03/09 07:00:57;;;;;;;13.55;9.60;;;4.80;44.20;;;-142.21;57.29;112049.66;6074693;23;20187;-77
2022/03/09 07:03:25;;;;;;;11.40;9.00;;;5.00;44.20;;;-142.21;56.25;112049.66;6075014;23;20532;-75
2022/03/09 07:05:57;;;;;;;11.98;9.68;;;5.10;43.70;;;-142.21;55.05;112049.66;6078008;23;20584;-84
2022/03/09 07:08:26;;;;;;;12.07;9.77;;;5.30;43.40;;;-142.21;57.31;112049.66;6076335;23;20176;-77
2022/03/09 07:10:53;;;;;;;11.70;9.70;;;5.30;43.50;;;-142.21;55.77;112049.66;6075731;23;20188;-75
2022/03/09 07:13:21;;;;;;;13.13;9.95;;;5.60;43.20;;;-142.21;53.72;112049.66;6075470;23;20479;-77
2022/03/09 07:15:49;;;;;;;14.77;10.48;;;5.90;42.30;;;-142.21;53.84;112049.66;6075785;23;20177;-76
2022/03/09 07:18:16;;;;;;;14.48;10.75;;;6.40;41.90;;;-142.21;54.03;112049.66;6074379;23;20180;-76
2022/03/09 07:20:46;;;;;;;15.73;11.57;;;6.60;41.50;;;-142.21;53.55;112049.66;6075311;23;20177;-76
2022/03/09 07:23:14;;;;;;;14.60;10.90;;;6.70;41.40;;;-142.21;52.21;112049.66;6074672;23;20416;-77
2022/03/09 07:25:44;;;;;;;18.43;11.00;;;7.00;40.80;;;-142.21;53.18;112049.66;6075217;23;20197;-76
2022/03/09 07:28:11;;;;;;;14.10;10.40;;;7.20;40.60;;;-142.21;51.15;112049.66;6074560;23;20504;-74
2022/03/09 07:30:38;;;;;;;14.30;9.37;;;7.30;40.30;;;-142.21;50.53;112049.66;6074808;23;20744;-75
2022/03/09 07:33:06;;;;;;;13.67;9.53;;;7.50;40.50;;;-142.21;50.14;112049.66;6063909;23;20452;-76
2022/03/09 07:35:33;;;;;;;12.10;9.60;;;8.70;39.60;;;-142.21;48.43;112049.66;6046315;23;20445;-74
2022/03/09 07:38:01;;;;;;;12.90;9.83;;;9.00;38.10;;;-142.21;48.51;112049.66;6041658;23;20414;-76
2022/03/09 07:40:28;;;;;;;12.50;9.47;;;8.90;38.00;;;-142.21;48.01;112049.66;6039529;23;20406;-74
2022/03/09 07:42:57;;;;;;;10.57;9.07;;;8.90;37.90;;;-142.21;50.06;112049.66;6039663;23;20445;-76
2022/03/09 07:45:25;;;;;;;12.33;10.87;;;9.10;38.50;;;-142.21;50.32;112049.66;6039145;23;20422;-76
2022/03/09 07:47:52;;;;;;;10.97;8.87;;;8.90;38.40;;;-142.21;50.22;112049.66;6039482;23;20434;-75
2022/03/09 07:50:19;;;;;;;12.77;10.93;;;8.70;38.30;;;-142.21;48.44;112049.66;6039422;23;20418;-76
2022/03/09 07:52:47;;;;;;;13.03;10.60;;;8.50;38.60;;;-142.21;47.65;112049.66;6021786;23;20414;-77
2022/03/09 07:55:15;;;;;;;13.10;10.17;;;8.40;39.00;;;-142.21;46.55;112049.66;6049379;23;20473;-76
2022/03/09 07:57:42;;;;;;;10.83;9.00;;;8.30;38.50;;;-142.21;46.96;112049.66;6041061;23;20402;-77
2022/03/09 08:00:13;;;;;;;9.90;8.20;;;8.30;39.00;;;-142.21;45.18;112049.66;6046641;23;20417;-77
2022/03/09 08:02:40;;;;;;;9.50;8.47;;;8.90;38.90;;;-142.21;45.49;112049.66;6048209;23;20462;-77
2022/03/09 08:05:10;;;;;;;10.97;9.23;;;9.80;38.60;;;-142.21;44.25;112049.66;6051371;23;20411;-77
2022/03/09 08:07:37;;;;;;;11.20;8.87;;;9.80;37.70;;;-142.21;44.62;112049.66;6039155;23;20446;-76
2022/03/09 08:10:06;;;;;;;9.60;8.50;;;9.80;37.10;;;-142.21;43.92;112049.66;6040485;23;20402;-76
2022/03/09 08:12:34;;;;;;;11.00;9.23;;;9.80;36.90;;;-142.21;44.47;112049.66;6039291;23;20482;-77
2022/03/09 08:15:02;;;;;;;12.20;9.23;;;9.80;36.80;;;-142.21;44.60;112049.66;6040745;23;20418;-75
2022/03/09 08:17:31;;;;;;;10.13;8.70;;;10.10;36.10;;;-142.21;43.94;112049.66;6040338;23;20422;-76
2022/03/09 08:19:59;;;;;;;10.37;8.70;;;10.50;36.10;;;-142.21;43.63;112049.66;6040469;23;20422;-76
2022/03/09 08:22:28;;;;;;;8.90;7.97;;;10.60;35.40;;;-142.21;43.63;112049.66;6041949;23;20426;-78
2022/03/09 08:24:55;;;;;;;9.20;8.20;;;10.60;34.70;;;-142.21;43.37;112049.66;6041947;23;20478;-77
2022/03/09 08:27:23;;;;;;;11.30;8.80;;;10.40;34.60;;;-142.21;40.88;112049.66;6041173;23;20450;-77
2022/03/09 08:29:51;;;;;;;10.97;8.67;;;10.30;34.00;;;-142.21;41.30;112049.66;6041248;23;20895;-76
2022/03/09 08:32:19;;;;;;;10.27;8.77;;;10.10;33.80;;;-142.21;41.77;112049.66;6039342;23;20422;-75
2022/03/09 08:34:48;;;;;;;9.80;8.17;;;9.90;35.20;;;-142.21;41.46;112049.66;6039669;23;20726;-76
2022/03/09 08:37:15;;;;;;;10.10;8.33;;;9.80;35.20;;;-142.21;41.89;112049.66;6039718;23;20790;-75
2022/03/09 08:39:45;;;;;;;9.13;8.23;;;9.80;35.70;;;-142.21;42.55;112049.66;6039667;23;20529;-77
2022/03/09 08:42:12;;;;;;;9.70;8.63;;;9.80;36.70;;;-142.21;41.66;112049.66;6038734;23;20418;-78
2022/03/09 08:44:39;;;;;;;9.47;8.30;;;10.00;35.30;;;-142.21;41.30;112049.66;6039912;23;20403;-79
2022/03/09 08:47:07;;;;;;;10.20;8.57;;;10.00;34.90;;;-142.21;41.06;112049.66;6038664;23;20457;-78
2022/03/09 08:49:39;;;;;;;10.67;8.37;;;10.10;34.80;;;-142.21;40.63;112049.66;6039197;23;20418;-80
2022/03/09 08:52:09;;;;;;;10.13;8.73;;;10.20;34.50;;;-142.21;40.55;112049.66;6038975;23;20721;-76
2022/03/09 08:54:36;;;;;;;10.97;8.27;;;10.20;34.60;;;-142.21;40.76;112049.66;6039069;23;20497;-76
2022/03/09 08:57:05;;;;;;;9.13;8.17;;;10.30;34.40;;;-142.21;39.36;112049.66;6039308;23;20421;-76
2022/03/09 08:59:32;;;;;;;10.63;8.40;;;10.30;34.00;;;-142.21;39.75;112049.66;6039396;23;20418;-75
2022/03/09 09:02:00;;;;;;;10.27;8.97;;;10.50;34.00;;;-142.21;39.98;112049.66;6039124;23;20434;-78
2022/03/09 09:04:27;;;;;;;8.30;7.50;;;10.80;34.10;;;-142.21;39.35;112049.66;6038592;23;20439;-77
2022/03/09 09:07:01;;;;;;;10.00;8.20;;;11.10;33.70;;;-142.21;39.28;112049.66;6039609;23;20946;-81
2022/03/09 09:09:30;;;;;;;11.83;9.23;;;11.60;33.50;;;-142.21;39.69;112049.66;6037715;23;20454;-81
2022/03/09 09:12:05;;;;;;;10.10;8.23;;;12.10;33.40;;;-142.21;38.92;112049.66;6038725;23;20485;-77
2022/03/09 09:14:32;;;;;;;12.10;8.67;;;12.90;32.80;;;-142.21;38.50;112049.66;6038323;23;20402;-76
2022/03/09 09:17:00;;;;;;;9.33;8.43;;;13.90;31.70;;;-142.21;38.15;112049.66;6038647;23;20446;-76
2022/03/09 09:19:28;;;;;;;9.77;8.70;;;15.50;31.50;;;-142.21;37.46;112049.66;6038371;23;20887;-76
2022/03/09 09:21:56;;;;;;;10.10;9.00;;;17.10;30.20;;;-142.21;37.05;112049.66;6039266;23;20774;-76
2022/03/09 09:24:34;;;;;;;10.37;9.33;;;17.90;28.30;;;-142.21;37.28;112049.66;6038218;23;20751;-76
2022/03/09 09:27:01;;;;;;;9.23;8.43;;;18.20;27.70;;;-142.21;35.42;112049.66;6038262;23;20430;-77
2022/03/09 09:29:28;;;;;;;9.63;8.63;;;18.60;27.60;;;-142.21;36.91;112049.66;6037646;23;20181;-77
2022/03/09 09:31:57;;;;;;;10.80;8.97;;;19.60;27.40;;;-142.21;36.33;112049.66;6038436;23;20567;-77
2022/03/09 09:34:25;;;;;;;9.90;8.90;;;20.90;26.70;;;-142.21;37.09;112049.66;6038278;23;20182;-77
2022/03/09 09:36:52;;;;;;;10.27;9.30;;;22.00;26.00;;;-142.21;33.76;112049.66;6038261;23;20270;-77
2022/03/09 09:39:20;;;;;;;10.13;9.23;;;23.00;24.80;;;-142.21;34.59;112049.66;6038344;23;20491;-77
2022/03/09 09:41:53;;;;;;;10.33;9.30;;;24.00;24.70;;;-142.21;34.96;112049.66;6037558;23;20184;-76
2022/03/09 09:44:23;;;;;;;10.30;9.40;;;24.90;23.70;;;-142.21;34.73;112049.66;6038041;23;20173;-78
2022/03/09 09:46:52;;;;;;;11.37;9.47;;;25.80;23.10;;;-142.21;34.31;112049.66;6038000;23;20286;-77
2022/03/09 09:49:23;;;;;;;10.40;9.50;;;26.60;23.10;;;-142.21;33.18;112049.66;6038443;23;20238;-78
2022/03/09 09:51:54;;;;;;;10.10;9.30;;;27.20;22.00;;;-142.21;33.58;112049.66;6038125;23;20181;-79
2022/03/09 09:54:24;;;;;;;10.40;9.40;;;27.70;21.20;;;-142.21;32.50;112049.66;6038197;23;20631;-79
2022/03/09 09:56:53;;;;;;;10.57;9.57;;;28.00;20.40;;;-142.21;31.79;112049.66;6038011;23;20167;-79
2022/03/09 09:59:20;;;;;;;10.50;9.53;;;28.10;20.00;;;-142.21;31.64;112049.66;6037869;23;20216;-79
2022/03/09 10:01:48;;;;;;;10.90;9.80;;;28.60;20.20;;;-142.21;31.79;112049.66;6037706;23;20212;-79
2022/03/09 10:04:15;;;;;;;10.17;9.33;;;28.90;20.00;;;-142.21;31.35;112049.66;6038226;23;20243;-79
2022/03/09 10:06:44;;;;;;;10.27;9.37;;;28.90;19.20;;;-142.21;30.57;112049.66;6038391;23;20205;-80
2022/03/09 10:09:13;;;;;;;10.83;9.83;;;29.20;19.30;;;-142.21;30.29;112049.66;6038388;23;20177;-79
2022/03/09 10:11:50;;;;;;;10.77;9.70;;;29.50;18.80;;;-142.21;27.89;112049.66;6038105;23;20209;-81
2022/03/09 10:14:43;;;;;;;10.23;9.43;;;29.80;18.40;;;-142.21;27.51;112049.66;6038301;23;20213;-80
2022/03/09 10:17:13;;;;;;;10.30;9.33;;;30.00;18.50;;;-142.21;26.79;112049.66;6037906;23;20181;-79
2022/03/09 10:19:50;;;;;;;10.87;9.80;;;30.20;18.40;;;-142.21;25.24;112049.66;6038682;23;20211;-79
2022/03/09 10:22:30;;;;;;;10.20;9.40;;;30.10;17.60;;;-142.21;24.44;112049.66;6037876;23;20165;-81
2022/03/09 10:25:01;;;;;;;10.20;9.30;;;29.80;17.90;;;-142.21;23.71;112049.66;6047260;23;20525;-80
2022/03/09 10:27:42;;;;;;;10.20;9.30;;;30.10;17.80;;;-142.21;21.94;112049.66;6044637;23;20199;-79
2022/03/09 10:30:14;;;;;;;9.83;8.93;;;30.20;17.10;;;-142.21;21.24;112049.66;6047668;23;20185;-79
2022/03/09 10:32:47;;;;;;;10.17;9.23;;;30.40;18.20;;;-142.21;21.16;112049.66;6047087;23;20622;-80
2022/03/09 10:35:18;;;;;;;10.43;9.53;;;30.80;17.60;;;-142.21;21.85;112049.66;6048275;23;20166;-80
2022/03/09 10:37:48;;;;;;;10.57;9.73;;;31.10;17.70;;;-142.21;19.96;112049.66;6045276;23;20265;-83
2022/03/09 10:40:19;;;;;;;10.70;9.80;;;31.10;17.50;;;-142.21;21.05;112049.66;6044974;23;20185;-79
2022/03/09 10:42:47;;;;;;;9.33;8.63;;;31.40;17.40;;;-142.21;20.30;112049.66;6043909;23;20291;-80
2022/03/09 10:45:18;;;;;;;10.53;9.63;;;31.50;17.20;;;-142.21;19.33;112049.66;6038350;23;20565;-79
2022/03/09 10:47:48;;;;;;;10.60;9.70;;;31.20;16.50;;;-142.21;19.68;112049.66;6038494;23;20238;-79
2022/03/09 10:50:19;;;;;;;10.43;9.53;;;31.30;17.10;;;-142.21;19.22;112049.66;6037370;23;20277;-79
2022/03/09 10:52:50;;;;;;;10.47;9.57;;;31.30;16.50;;;-142.21;18.89;112049.66;6038542;23;20224;-79
2022/03/09 10:55:28;;;;;;;10.47;9.57;;;31.00;17.00;;;-142.21;19.46;112049.66;6037389;23;20552;-79
2022/03/09 10:58:12;;;;;;;10.90;9.80;;;30.90;16.90;;;-142.21;19.24;112049.66;6037733;23;20665;-78
2022/03/09 11:00:45;;;;;;;10.27;9.47;;;31.30;16.60;;;-142.21;18.66;112049.66;6037634;23;20172;-79
2022/03/09 11:03:15;;;;;;;10.97;10.07;;;31.70;16.90;;;-142.21;18.69;112049.66;6037981;23;20177;-79
2022/03/09 11:05:52;;;;;;;11.13;10.23;;;31.90;16.60;;;-142.21;18.51;112049.66;6037533;23;20189;-80
2022/03/09 11:08:21;;;;;;;11.60;10.60;;;32.00;16.00;;;-142.21;18.51;112049.66;6037972;23;20162;-78
2022/03/09 11:10:50;;;;;;;10.87;9.97;;;32.30;16.70;;;-142.21;18.75;112049.66;6036807;23;20250;-78
2022/03/09 11:13:18;;;;;;;10.83;9.83;;;32.30;16.30;;;-142.21;19.02;112049.66;6039535;23;20559;-78
2022/03/09 11:15:49;;;;;;;10.90;9.90;;;32.50;16.60;;;-142.21;18.03;112049.66;6039207;23;20178;-80
2022/03/09 11:18:19;;;;;;;11.70;10.50;;;32.80;16.50;;;-142.21;17.84;112049.66;6039787;23;20240;-79
2022/03/09 11:20:48;;;;;;;10.97;9.97;;;33.00;16.20;;;-142.21;18.47;112049.66;6038831;23;20574;-79
2022/03/09 11:23:17;;;;;;;11.57;10.50;;;33.10;16.00;;;-142.21;17.35;112049.66;6039791;23;20184;-79